Time;durP1;ratioP1;P1;durP2;ratioP2;P2;SDS_P1;SDS_P2;PMS_P1;PMS_P2;Temp;Humidity;BMP_temperature;BMP_pressure;BME280_temperature;BME280_humidity;BME280_pressure;Samples;Min_cycle;Max_cycle;Signal;HPM_P1;HPM_P2
2022/04/08 00:00:19;;;;;;;1.77;1.40;;;8.90;99.90;;;;;;5032027;28;20025;-58
2022/04/08 00:02:44;;;;;;;1.33;1.33;;;9.00;99.90;;;;;;5032071;28;20097;-55
2022/04/08 00:05:10;;;;;;;1.85;1.67;;;8.90;99.90;;;;;;5031683;28;20179;-57
2022/04/08 00:07:37;;;;;;;1.70;1.60;;;9.00;99.90;;;;;;5031884;28;20465;-58
2022/04/08 00:10:06;;;;;;;1.50;1.40;;;9.00;99.90;;;;;;5031721;28;20038;-57
2022/04/08 00:12:32;;;;;;;2.42;1.38;;;8.90;99.90;;;;;;5031847;28;20018;-57
2022/04/08 00:14:59;;;;;;;4.28;1.83;;;8.80;99.90;;;;;;5031579;28;20049;-57
2022/04/08 00:17:25;;;;;;;1.50;1.40;;;8.70;99.90;;;;;;5030342;28;20473;-57
2022/04/08 00:19:50;;;;;;;1.50;1.40;;;8.70;99.90;;;;;;5031630;28;20064;-54
2022/04/08 00:22:18;;;;;;;1.92;1.42;;;8.70;99.90;;;;;;5031470;28;20065;-57
2022/04/08 00:24:44;;;;;;;1.58;1.48;;;8.60;99.90;;;;;;5031662;28;20096;-55
2022/04/08 00:27:10;;;;;;;2.28;1.83;;;8.50;99.90;;;;;;5031602;28;20158;-57
2022/04/08 00:29:36;;;;;;;1.65;1.30;;;8.50;99.90;;;;;;5030315;28;20112;-56
2022/04/08 00:32:02;;;;;;;2.40;1.45;;;8.40;99.90;;;;;;5031653;28;20030;-56
2022/04/08 00:34:28;;;;;;;5.75;1.98;;;8.40;99.90;;;;;;5031512;28;20037;-57
2022/04/08 00:36:55;;;;;;;3.88;2.00;;;8.30;99.90;;;;;;5030990;28;20022;-54
2022/04/08 00:39:21;;;;;;;3.25;1.85;;;8.30;99.90;;;;;;5031683;28;20026;-57
2022/04/08 00:41:47;;;;;;;5.38;1.92;;;8.30;99.90;;;;;;5031592;28;20026;-55
2022/04/08 00:44:13;;;;;;;2.50;1.67;;;8.30;99.90;;;;;;5031470;28;20013;-56
2022/04/08 00:46:39;;;;;;;6.03;2.22;;;8.30;99.90;;;;;;5031667;28;20030;-54
2022/04/08 00:49:06;;;;;;;3.90;1.83;;;8.30;99.90;;;;;;5031349;28;20048;-54
2022/04/08 00:51:35;;;;;;;3.33;1.60;;;8.40;99.90;;;;;;5031446;28;20368;-58
2022/04/08 00:54:03;;;;;;;1.95;1.75;;;8.40;99.90;;;;;;5031401;28;20061;-54
2022/04/08 00:56:29;;;;;;;2.55;1.58;;;8.50;99.90;;;;;;5031410;28;20030;-54
2022/04/08 00:58:56;;;;;;;4.00;1.55;;;8.50;99.90;;;;;;5031307;28;20477;-56
2022/04/08 01:01:23;;;;;;;2.55;1.40;;;8.50;99.90;;;;;;5031584;28;20022;-54
2022/04/08 01:03:52;;;;;;;3.97;1.55;;;8.60;99.90;;;;;;5031287;28;20030;-58
2022/04/08 01:06:19;;;;;;;4.93;1.70;;;8.50;99.90;;;;;;5031507;28;20033;-56
2022/04/08 01:08:46;;;;;;;1.83;1.40;;;8.60;99.90;;;;;;5031270;28;20021;-55
2022/04/08 01:11:12;;;;;;;4.30;1.67;;;8.60;99.90;;;;;;5031169;28;20029;-56
2022/04/08 01:13:37;;;;;;;3.80;1.73;;;8.50;99.90;;;;;;5031232;28;20045;-52
2022/04/08 01:16:07;;;;;;;5.97;3.03;;;8.50;99.90;;;;;;5031233;28;20075;-54
2022/04/08 01:18:32;;;;;;;1.85;1.55;;;8.40;99.90;;;;;;5031243;28;20128;-56
2022/04/08 01:21:01;;;;;;;1.60;1.50;;;8.30;99.90;;;;;;5031157;28;20077;-56
2022/04/08 01:23:28;;;;;;;1.70;1.60;;;8.30;99.90;;;;;;5031158;28;20026;-58
2022/04/08 01:25:53;;;;;;;9.02;2.67;;;8.10;99.90;;;;;;5031183;28;20025;-55
2022/04/08 01:28:19;;;;;;;3.40;1.98;;;8.10;99.90;;;;;;5031233;28;20464;-55
2022/04/08 01:30:44;;;;;;;7.68;2.15;;;7.90;99.90;;;;;;5031245;28;20029;-56
2022/04/08 01:33:10;;;;;;;5.72;2.25;;;7.90;99.90;;;;;;5030766;28;20045;-53
2022/04/08 01:35:36;;;;;;;2.88;2.17;;;7.80;99.90;;;;;;5031093;28;20038;-54
2022/04/08 01:38:01;;;;;;;5.53;2.28;;;7.70;99.90;;;;;;5030955;28;20025;-54
2022/04/08 01:40:27;;;;;;;8.20;2.38;;;7.70;99.90;;;;;;5031030;28;20532;-58
2022/04/08 01:42:53;;;;;;;6.75;2.35;;;7.60;99.90;;;;;;5030965;28;20703;-52
2022/04/08 01:45:18;;;;;;;3.80;2.58;;;7.60;99.90;;;;;;5030900;28;20076;-58
2022/04/08 01:47:46;;;;;;;10.35;3.30;;;7.50;99.90;;;;;;5033865;28;20021;-57
2022/04/08 01:50:13;;;;;;;4.30;2.78;;;7.50;99.90;;;;;;5034546;28;20079;-56
2022/04/08 01:52:39;;;;;;;5.07;2.83;;;7.50;99.90;;;;;;5034030;28;20392;-54
2022/04/08 01:55:05;;;;;;;6.28;2.42;;;7.40;99.90;;;;;;5033210;28;20025;-56
2022/04/08 01:57:31;;;;;;;5.15;2.80;;;7.40;99.90;;;;;;5033188;28;20025;-53
2022/04/08 01:59:56;;;;;;;21.58;6.70;;;7.40;99.90;;;;;;5033265;28;20036;-56
2022/04/08 02:02:28;;;;;;;7.03;3.13;;;7.40;99.90;;;;;;5034303;28;20064;-54
2022/04/08 02:04:54;;;;;;;6.18;2.53;;;7.40;99.90;;;;;;5033765;28;20017;-58
2022/04/08 02:07:19;;;;;;;5.85;2.78;;;7.30;99.90;;;;;;5034267;28;20052;-57
2022/04/08 02:09:45;;;;;;;6.75;2.28;;;7.40;99.90;;;;;;5034176;28;20036;-58
2022/04/08 02:12:13;;;;;;;5.05;2.95;;;7.40;99.90;;;;;;5033879;28;20033;-57
2022/04/08 02:14:39;;;;;;;5.97;2.65;;;7.40;99.90;;;;;;5034234;28;20428;-56
2022/04/08 02:17:05;;;;;;;5.80;2.65;;;7.40;99.90;;;;;;5033874;28;20032;-57
2022/04/08 02:19:30;;;;;;;7.43;2.95;;;7.40;99.90;;;;;;5034182;28;20384;-55
2022/04/08 02:21:57;;;;;;;7.60;3.03;;;7.40;99.90;;;;;;5033903;28;20022;-57
2022/04/08 02:24:24;;;;;;;5.88;2.80;;;7.40;99.90;;;;;;5033974;28;20022;-58
2022/04/08 02:26:50;;;;;;;7.35;3.47;;;7.40;99.90;;;;;;5034094;28;20033;-57
2022/04/08 02:29:16;;;;;;;6.63;3.17;;;7.40;99.90;;;;;;5033611;28;20025;-57
2022/04/08 02:31:41;;;;;;;6.70;3.40;;;7.40;99.90;;;;;;5032558;28;20064;-57
2022/04/08 02:34:07;;;;;;;13.77;4.55;;;7.30;99.90;;;;;;5033823;28;20108;-56
2022/04/08 02:36:33;;;;;;;13.77;6.50;;;7.30;99.90;;;;;;5033736;28;20476;-58
2022/04/08 02:38:58;;;;;;;10.48;3.83;;;7.30;99.90;;;;;;5033662;28;20022;-58
2022/04/08 02:41:24;;;;;;;9.73;3.35;;;7.30;99.90;;;;;;5033709;28;20033;-56
2022/04/08 02:43:50;;;;;;;12.68;5.32;;;7.30;99.90;;;;;;5033487;28;20025;-57
2022/04/08 02:46:15;;;;;;;12.00;4.18;;;7.30;99.90;;;;;;5033521;28;20118;-57
2022/04/08 02:48:41;;;;;;;12.63;6.20;;;7.30;99.90;;;;;;5033577;28;20076;-57
2022/04/08 02:51:07;;;;;;;26.65;11.43;;;7.30;99.90;;;;;;5033514;28;20087;-57
2022/04/08 02:53:32;;;;;;;9.73;4.80;;;7.20;99.90;;;;;;5033507;28;20017;-57
2022/04/08 02:55:58;;;;;;;6.75;3.13;;;7.20;99.90;;;;;;5033322;28;20101;-55
2022/04/08 02:58:23;;;;;;;10.05;4.05;;;7.20;99.90;;;;;;5032512;28;20712;-58
2022/04/08 03:00:49;;;;;;;10.43;4.80;;;7.20;99.90;;;;;;5033405;28;20033;-56
2022/04/08 03:03:15;;;;;;;9.05;4.00;;;7.20;99.90;;;;;;5033163;28;20037;-58
2022/04/08 03:05:40;;;;;;;7.95;3.53;;;7.20;99.90;;;;;;5033159;28;20392;-54
2022/04/08 03:08:06;;;;;;;9.20;3.25;;;7.20;99.90;;;;;;5033130;28;20030;-57
2022/04/08 03:10:32;;;;;;;8.18;3.22;;;7.20;99.90;;;;;;5033101;28;20469;-57
2022/04/08 03:12:57;;;;;;;6.10;2.88;;;7.20;99.90;;;;;;5032771;28;20061;-56
2022/04/08 03:15:23;;;;;;;18.50;4.97;;;7.20;99.90;;;;;;5033017;28;20128;-58
2022/04/08 03:17:51;;;;;;;7.22;3.65;;;7.10;99.90;;;;;;5033012;28;20034;-56
2022/04/08 03:20:17;;;;;;;15.85;3.67;;;7.10;99.90;;;;;;5032897;28;20017;-58
2022/04/08 03:22:43;;;;;;;8.70;3.58;;;7.00;99.90;;;;;;5032895;28;20495;-57
2022/04/08 03:25:09;;;;;;;9.38;3.60;;;7.00;99.90;;;;;;5032765;28;20111;-56
2022/04/08 03:27:35;;;;;;;8.80;3.55;;;7.00;99.90;;;;;;5032716;28;20108;-57
2022/04/08 03:30:01;;;;;;;12.02;3.97;;;7.00;99.90;;;;;;5032624;28;20100;-55
2022/04/08 03:32:27;;;;;;;9.15;3.55;;;7.00;99.90;;;;;;5032882;28;20082;-55
2022/04/08 03:34:57;;;;;;;15.35;4.05;;;6.90;99.90;;;;;;5032434;28;20388;-57
2022/04/08 03:37:29;;;;;;;8.90;3.45;;;7.00;99.90;;;;;;5032122;28;20033;-57
2022/04/08 03:39:55;;;;;;;8.07;3.30;;;6.90;99.90;;;;;;5032552;28;20025;-57
2022/04/08 03:42:21;;;;;;;5.80;3.50;;;6.90;99.90;;;;;;5032216;28;20427;-56
2022/04/08 03:44:47;;;;;;;7.57;3.22;;;6.80;99.90;;;;;;5032443;28;20452;-58
2022/04/08 03:47:13;;;;;;;5.30;3.05;;;6.70;99.90;;;;;;5031861;28;20072;-55
2022/04/08 03:49:38;;;;;;;8.30;3.00;;;6.60;99.90;;;;;;5031225;28;20102;-57
2022/04/08 03:52:05;;;;;;;13.75;3.83;;;6.60;99.90;;;;;;5030397;28;20045;-56
2022/04/08 03:54:31;;;;;;;9.20;3.22;;;6.60;99.90;;;;;;5030965;28;20025;-55
2022/04/08 03:56:56;;;;;;;7.78;2.92;;;6.50;99.90;;;;;;5030638;28;20033;-56
2022/04/08 03:59:23;;;;;;;5.10;2.78;;;6.60;99.90;;;;;;5030799;28;20021;-54
2022/04/08 04:01:49;;;;;;;6.75;2.42;;;6.60;99.90;;;;;;5031018;28;20025;-54
2022/04/08 04:04:15;;;;;;;6.07;2.80;;;6.50;99.90;;;;;;5030671;28;20018;-52
2022/04/08 04:06:41;;;;;;;6.20;2.65;;;6.50;99.90;;;;;;5030760;28;20025;-57
2022/04/08 04:09:07;;;;;;;2.30;2.10;;;6.50;99.90;;;;;;5030587;28;20393;-59
2022/04/08 04:11:33;;;;;;;11.20;3.30;;;6.50;99.90;;;;;;5029737;28;20116;-55
2022/04/08 04:13:59;;;;;;;5.75;2.38;;;6.60;99.90;;;;;;5030459;28;20486;-56
2022/04/08 04:16:26;;;;;;;3.05;2.10;;;6.50;99.90;;;;;;5030584;28;20022;-57
2022/04/08 04:18:52;;;;;;;3.70;2.50;;;6.50;99.90;;;;;;5029372;28;20100;-56
2022/04/08 04:21:17;;;;;;;3.17;2.08;;;6.50;99.90;;;;;;5031109;28;20444;-57
2022/04/08 04:23:43;;;;;;;10.23;2.60;;;6.50;99.90;;;;;;5029453;28;20112;-54
2022/04/08 04:26:09;;;;;;;3.30;2.30;;;6.50;99.90;;;;;;5029576;28;20100;-57
2022/04/08 04:28:35;;;;;;;3.67;2.60;;;6.50;99.90;;;;;;5030481;28;20109;-54
2022/04/08 04:31:03;;;;;;;10.63;3.50;;;6.50;99.90;;;;;;5030262;28;20057;-56
2022/04/08 04:33:29;;;;;;;6.50;2.85;;;6.50;99.90;;;;;;5030336;28;20032;-56
2022/04/08 04:35:55;;;;;;;12.20;3.58;;;6.40;99.90;;;;;;5030215;28;20052;-56
2022/04/08 04:38:21;;;;;;;8.77;3.20;;;6.40;99.90;;;;;;5030506;28;20026;-55
2022/04/08 04:40:47;;;;;;;9.63;3.30;;;6.40;99.90;;;;;;5030274;28;20030;-55
2022/04/08 04:43:13;;;;;;;7.35;3.33;;;6.30;99.90;;;;;;5028820;28;20028;-56
2022/04/08 04:45:39;;;;;;;7.80;2.67;;;6.30;99.90;;;;;;5030383;28;20067;-57
2022/04/08 04:48:12;;;;;;;8.75;3.28;;;6.30;99.90;;;;;;5030713;28;20518;-54
2022/04/08 04:50:38;;;;;;;8.93;3.38;;;6.30;99.90;;;;;;5031215;28;20106;-52
2022/04/08 04:53:04;;;;;;;13.75;3.35;;;6.30;99.90;;;;;;5029125;28;20146;-57
2022/04/08 04:55:30;;;;;;;11.85;3.42;;;6.20;99.90;;;;;;5029619;28;20365;-51
2022/04/08 04:57:57;;;;;;;12.45;3.30;;;6.20;99.90;;;;;;5030829;28;20048;-57
2022/04/08 05:00:23;;;;;;;15.90;3.60;;;6.10;99.90;;;;;;5033622;28;20025;-56
2022/04/08 05:02:49;;;;;;;8.15;3.67;;;6.20;99.90;;;;;;5030783;28;20064;-54
2022/04/08 05:05:15;;;;;;;11.13;3.78;;;6.10;99.90;;;;;;5031295;28;20641;-58
2022/04/08 05:07:41;;;;;;;8.02;3.22;;;6.20;99.90;;;;;;5031441;28;20030;-60
2022/04/08 05:10:08;;;;;;;8.70;4.18;;;6.20;99.90;;;;;;5030971;28;20112;-56
2022/04/08 05:12:37;;;;;;;10.95;3.88;;;6.10;99.90;;;;;;5030627;28;20068;-57
2022/04/08 05:15:09;;;;;;;8.57;3.50;;;6.10;99.90;;;;;;5030845;28;20042;-57
2022/04/08 05:17:38;;;;;;;71.97;26.65;;;6.10;99.90;;;;;;5030652;28;20022;-55
2022/04/08 05:20:05;;;;;;;7.80;2.75;;;6.10;99.90;;;;;;5031409;28;20030;-57
2022/04/08 05:22:32;;;;;;;11.57;4.22;;;6.20;99.90;;;;;;5033348;28;20033;-52
2022/04/08 05:24:59;;;;;;;10.68;3.42;;;6.10;99.90;;;;;;5034916;28;20028;-56
2022/04/08 05:27:26;;;;;;;7.97;2.78;;;6.20;99.90;;;;;;5034918;28;20026;-56
2022/04/08 05:29:51;;;;;;;9.07;4.05;;;6.20;99.90;;;;;;5034911;28;20095;-58
2022/04/08 05:32:17;;;;;;;8.48;3.50;;;6.30;99.90;;;;;;5034746;28;20033;-55
2022/04/08 05:34:43;;;;;;;7.45;3.47;;;6.20;99.90;;;;;;5034897;28;20691;-54
2022/04/08 05:37:09;;;;;;;10.07;3.33;;;6.30;99.90;;;;;;5034462;28;20030;-56
2022/04/08 05:39:34;;;;;;;7.55;3.42;;;6.30;99.90;;;;;;5034690;28;20025;-53
2022/04/08 05:42:00;;;;;;;10.27;2.67;;;6.40;99.90;;;;;;5034511;28;20022;-57
2022/04/08 05:44:26;;;;;;;10.27;3.80;;;6.40;99.90;;;;;;5034699;28;20072;-57
2022/04/08 05:46:52;;;;;;;14.55;4.88;;;6.40;99.90;;;;;;5033326;28;20032;-57
2022/04/08 05:49:17;;;;;;;10.50;4.47;;;6.40;99.90;;;;;;5034638;28;20104;-55
2022/04/08 05:51:45;;;;;;;11.35;5.25;;;6.30;99.90;;;;;;5034583;28;20052;-57
2022/04/08 05:54:11;;;;;;;11.43;5.20;;;6.40;99.90;;;;;;5034566;28;20568;-53
2022/04/08 05:56:37;;;;;;;9.13;2.97;;;6.40;99.90;;;;;;5034454;28;20036;-55
2022/04/08 05:59:03;;;;;;;9.27;3.20;;;6.40;99.90;;;;;;5034271;28;20026;-57
2022/04/08 06:01:28;;;;;;;8.75;4.38;;;6.40;99.90;;;;;;5034320;28;20021;-56
2022/04/08 06:03:54;;;;;;;6.03;3.50;;;6.40;99.90;;;;;;5034232;28;20022;-54
2022/04/08 06:06:21;;;;;;;6.85;3.65;;;6.50;99.90;;;;;;5034176;28;20025;-58
2022/04/08 06:08:46;;;;;;;10.35;3.08;;;6.50;99.90;;;;;;5034245;28;20056;-56
2022/04/08 06:11:12;;;;;;;12.50;3.80;;;6.50;99.90;;;;;;5034207;28;20664;-54
2022/04/08 06:13:38;;;;;;;6.03;3.83;;;6.40;99.90;;;;;;5033700;28;20041;-57
2022/04/08 06:16:04;;;;;;;9.48;3.97;;;6.40;99.90;;;;;;5033944;28;20581;-56
2022/04/08 06:18:29;;;;;;;8.95;3.55;;;6.40;99.90;;;;;;5033895;28;20029;-55
2022/04/08 06:20:55;;;;;;;8.18;3.72;;;6.60;99.90;;;;;;5033985;28;20045;-56
2022/04/08 06:23:21;;;;;;;11.90;4.90;;;6.60;99.90;;;;;;5034021;28;20387;-56
2022/04/08 06:25:48;;;;;;;7.13;3.40;;;6.60;99.90;;;;;;5034241;28;20021;-57
2022/04/08 06:28:13;;;;;;;7.53;3.13;;;6.60;99.90;;;;;;5033759;28;20057;-54
2022/04/08 06:30:40;;;;;;;7.15;3.58;;;6.70;99.90;;;;;;5033842;28;20384;-57
2022/04/08 06:33:07;;;;;;;8.10;3.35;;;6.80;99.90;;;;;;5032578;28;20108;-55
2022/04/08 06:35:34;;;;;;;10.98;3.33;;;6.80;99.90;;;;;;5032254;28;20461;-54
2022/04/08 06:38:02;;;;;;;15.55;6.80;;;6.90;99.90;;;;;;5033422;28;20065;-55
2022/04/08 06:40:28;;;;;;;10.60;5.32;;;6.80;99.90;;;;;;5033789;28;20424;-57
2022/04/08 06:42:59;;;;;;;13.52;3.95;;;6.90;99.90;;;;;;5033396;28;20022;-55
2022/04/08 06:45:26;;;;;;;34.08;11.88;;;6.80;99.90;;;;;;5033804;28;20083;-56
2022/04/08 06:47:52;;;;;;;7.60;3.25;;;6.80;99.90;;;;;;5033370;28;20025;-57
2022/04/08 06:50:18;;;;;;;24.55;8.52;;;6.90;99.90;;;;;;5033368;28;20473;-56
2022/04/08 06:52:44;;;;;;;8.23;4.30;;;7.00;99.90;;;;;;5033375;28;20056;-57
2022/04/08 06:55:10;;;;;;;8.60;4.88;;;7.10;99.90;;;;;;5033195;28;20075;-56
2022/04/08 06:57:36;;;;;;;3.92;2.97;;;7.20;99.90;;;;;;5033361;28;20029;-58
2022/04/08 07:00:07;;;;;;;7.20;3.05;;;7.30;99.90;;;;;;5032990;28;20064;-55
2022/04/08 07:02:33;;;;;;;15.43;5.35;;;7.30;99.90;;;;;;5033200;28;20032;-57
2022/04/08 07:04:59;;;;;;;8.30;3.40;;;7.40;99.90;;;;;;5032813;28;20025;-56
2022/04/08 07:07:31;;;;;;;87.07;21.00;;;7.40;99.90;;;;;;5033226;28;20032;-57
2022/04/08 07:09:57;;;;;;;13.50;3.63;;;7.40;99.90;;;;;;5032922;28;20030;-57
2022/04/08 07:12:25;;;;;;;8.00;3.33;;;7.40;99.90;;;;;;5033099;28;20536;-52
2022/04/08 07:14:50;;;;;;;11.55;4.13;;;7.40;99.90;;;;;;5032743;28;20060;-58
2022/04/08 07:17:16;;;;;;;99.05;20.52;;;7.40;99.90;;;;;;5032673;28;20029;-57
2022/04/08 07:19:42;;;;;;;21.40;10.40;;;7.40;99.90;;;;;;5032993;28;20024;-55
2022/04/08 07:22:07;;;;;;;14.80;5.88;;;7.50;99.90;;;;;;5032474;28;20033;-58
2022/04/08 07:24:33;;;;;;;6.18;4.32;;;7.60;99.90;;;;;;5032831;28;20017;-57
2022/04/08 07:26:59;;;;;;;118.93;29.10;;;7.70;99.90;;;;;;5032636;28;20025;-57
2022/04/08 07:29:24;;;;;;;8.35;3.38;;;7.70;99.90;;;;;;5032691;28;20108;-57
2022/04/08 07:31:50;;;;;;;7.25;2.80;;;7.80;99.90;;;;;;5031493;28;20479;-58
2022/04/08 07:34:16;;;;;;;39.95;9.25;;;7.90;99.90;;;;;;5032407;28;20032;-55
2022/04/08 07:36:41;;;;;;;11.02;3.10;;;8.00;99.90;;;;;;5032561;28;20637;-57
2022/04/08 07:39:07;;;;;;;8.57;3.40;;;8.20;99.90;;;;;;5032469;28;20022;-58
2022/04/08 07:41:32;;;;;;;60.00;14.32;;;8.40;99.90;;;;;;5032572;28;20026;-55
2022/04/08 07:43:58;;;;;;;110.45;26.30;;;8.40;99.90;;;;;;5032094;28;20028;-58
2022/04/08 07:46:24;;;;;;;8.52;2.78;;;8.20;99.90;;;;;;5032481;28;20337;-57
2022/04/08 07:48:49;;;;;;;25.77;6.57;;;8.30;99.90;;;;;;5031013;28;20033;-57
2022/04/08 07:51:15;;;;;;;9.05;2.45;;;8.20;99.90;;;;;;5032097;28;20096;-56
2022/04/08 07:53:41;;;;;;;8.60;3.03;;;8.40;99.90;;;;;;5032441;28;20017;-54
2022/04/08 07:56:07;;;;;;;14.82;6.00;;;8.40;99.90;;;;;;5032182;28;20033;-55
2022/04/08 07:58:33;;;;;;;5.28;2.40;;;8.40;99.90;;;;;;5032167;28;20060;-58
2022/04/08 08:00:59;;;;;;;15.50;8.27;;;8.60;99.90;;;;;;5031945;28;20029;-56
2022/04/08 08:03:24;;;;;;;3.88;2.10;;;8.80;99.90;;;;;;5032050;28;20353;-58
2022/04/08 08:05:53;;;;;;;4.97;2.42;;;8.80;99.90;;;;;;5032236;28;20033;-57
2022/04/08 08:08:20;;;;;;;7.97;2.20;;;9.00;99.90;;;;;;5031870;28;20021;-56
2022/04/08 08:10:46;;;;;;;6.97;2.38;;;8.90;99.90;;;;;;5032021;28;20029;-55
2022/04/08 08:13:12;;;;;;;6.10;2.25;;;8.90;99.90;;;;;;5031647;28;20114;-57
2022/04/08 08:15:39;;;;;;;3.20;2.22;;;8.80;99.90;;;;;;5031794;28;20132;-56
2022/04/08 08:18:07;;;;;;;8.52;3.28;;;8.60;99.90;;;;;;5031640;28;20029;-55
2022/04/08 08:20:33;;;;;;;8.77;2.30;;;8.50;99.90;;;;;;5031981;28;20028;-53
2022/04/08 08:22:58;;;;;;;8.15;2.83;;;8.30;99.90;;;;;;5031547;28;20013;-57
2022/04/08 08:25:24;;;;;;;3.20;2.03;;;8.30;99.90;;;;;;5031723;28;20053;-58
2022/04/08 08:27:54;;;;;;;7.45;2.42;;;8.40;99.90;;;;;;5031717;28;20033;-58
2022/04/08 08:30:20;;;;;;;5.15;2.40;;;8.40;99.90;;;;;;5031540;28;20028;-58
2022/04/08 08:32:48;;;;;;;5.53;2.33;;;8.10;99.90;;;;;;5031742;28;20052;-58
2022/04/08 08:35:17;;;;;;;8.50;2.60;;;8.30;99.90;;;;;;5031426;28;20432;-53
2022/04/08 08:37:43;;;;;;;6.40;2.42;;;8.40;99.90;;;;;;5031467;28;20021;-57
2022/04/08 08:40:14;;;;;;;4.50;3.00;;;8.40;99.90;;;;;;5031452;28;20112;-55
2022/04/08 08:42:41;;;;;;;8.70;2.20;;;8.40;99.90;;;;;;5029537;28;20026;-58
2022/04/08 08:45:09;;;;;;;4.53;2.22;;;8.60;99.90;;;;;;5030300;28;20021;-56
2022/04/08 08:47:36;;;;;;;4.43;2.05;;;8.80;99.90;;;;;;5030649;28;20060;-57
2022/04/08 08:50:02;;;;;;;6.15;2.70;;;9.00;99.90;;;;;;5030483;28;20026;-58
2022/04/08 08:52:28;;;;;;;8.55;2.25;;;9.00;99.90;;;;;;5031257;28;20029;-57
2022/04/08 08:54:54;;;;;;;4.07;1.95;;;9.00;99.90;;;;;;5031114;28;20084;-63
2022/04/08 08:57:22;;;;;;;7.82;2.20;;;9.00;99.90;;;;;;5033722;28;20021;-58
2022/04/08 08:59:51;;;;;;;3.67;2.20;;;9.10;99.90;;;;;;5035500;28;20028;-58
2022/04/08 09:02:19;;;;;;;2.25;2.00;;;9.20;99.90;;;;;;5035229;28;20018;-55
2022/04/08 09:04:46;;;;;;;4.25;2.10;;;9.20;99.90;;;;;;5035368;28;20021;-58
2022/04/08 09:07:26;;;;;;;4.30;2.00;;;9.10;99.90;;;;;;5035303;28;20026;-59
2022/04/08 09:09:53;;;;;;;6.10;2.00;;;9.10;99.90;;;;;;5035371;28;20021;-57
2022/04/08 09:12:20;;;;;;;7.32;2.42;;;9.10;99.90;;;;;;5035220;28;20103;-57
2022/04/08 09:14:50;;;;;;;6.53;2.88;;;9.20;99.90;;;;;;5033674;28;20525;-58
2022/04/08 09:17:20;;;;;;;6.40;2.25;;;9.40;99.90;;;;;;5035013;28;20038;-58
2022/04/08 09:19:53;;;;;;;5.80;2.47;;;9.30;99.90;;;;;;5035272;28;20029;-56
2022/04/08 09:22:20;;;;;;;4.18;2.10;;;9.00;99.90;;;;;;5035225;28;20017;-59
2022/04/08 09:24:46;;;;;;;3.60;1.90;;;9.10;99.90;;;;;;5035149;28;20030;-58
2022/04/08 09:27:12;;;;;;;5.43;2.53;;;9.40;99.90;;;;;;5035019;28;20029;-60
2022/04/08 09:29:45;;;;;;;6.72;2.45;;;9.40;99.90;;;;;;5035009;28;20108;-60
2022/04/08 09:32:17;;;;;;;5.05;2.20;;;9.40;99.90;;;;;;5033419;28;20025;-59
2022/04/08 09:34:42;;;;;;;4.90;2.00;;;9.60;99.90;;;;;;5034963;28;20033;-59
2022/04/08 09:37:12;;;;;;;5.68;2.00;;;9.70;99.90;;;;;;5034295;28;20067;-58
2022/04/08 09:39:59;;;;;;;3.85;1.80;;;9.60;99.90;;;;;;5034679;28;20022;-59
2022/04/08 09:42:41;;;;;;;4.20;1.80;;;9.50;99.90;;;;;;5034738;28;20025;-58
2022/04/08 09:45:08;;;;;;;5.85;2.30;;;9.70;99.90;;;;;;5034536;28;20037;-59
2022/04/08 09:47:33;;;;;;;7.93;2.22;;;9.90;99.90;;;;;;5034625;28;20413;-59
2022/04/08 09:49:59;;;;;;;4.65;2.00;;;10.00;99.90;;;;;;5034255;28;20059;-57
2022/04/08 09:52:26;;;;;;;4.90;2.28;;;10.40;99.90;;;;;;5034722;28;20033;-56
2022/04/08 09:54:53;;;;;;;4.55;2.53;;;10.70;99.90;;;;;;5034502;28;20076;-58
2022/04/08 09:57:19;;;;;;;7.18;2.50;;;10.70;99.90;;;;;;5034341;28;20022;-58
2022/04/08 09:59:53;;;;;;;9.90;2.15;;;11.60;99.90;;;;;;5034350;28;20052;-58
2022/04/08 10:02:19;;;;;;;5.05;2.13;;;11.80;99.90;;;;;;5034315;28;20074;-59
2022/04/08 10:04:45;;;;;;;5.35;2.10;;;12.10;99.90;;;;;;5034563;28;20025;-60
2022/04/08 10:07:11;;;;;;;2.50;2.00;;;11.60;99.90;;;;;;5034150;28;20461;-60
2022/04/08 10:09:51;;;;;;;3.22;1.63;;;11.30;99.90;;;;;;5034242;28;20400;-60
2022/04/08 10:12:27;;;;;;;4.10;1.73;;;11.40;99.90;;;;;;5034037;28;20026;-59
2022/04/08 10:15:14;;;;;;;4.13;2.03;;;12.00;99.90;;;;;;5033778;28;20041;-60
2022/04/08 10:17:40;;;;;;;4.40;2.10;;;12.00;99.90;;;;;;5034030;28;20037;-59
2022/04/08 10:20:21;;;;;;;2.58;1.80;;;12.30;99.90;;;;;;5033841;28;20025;-57
2022/04/08 10:22:47;;;;;;;2.60;1.55;;;12.00;99.90;;;;;;5029067;28;20052;-60
2022/04/08 10:25:15;;;;;;;6.07;1.90;;;11.60;99.90;;;;;;5024282;28;20061;-58
2022/04/08 10:27:43;;;;;;;2.25;1.60;;;11.70;99.90;;;;;;5024107;28;20773;-59
2022/04/08 10:30:12;;;;;;;1.40;1.30;;;11.80;99.90;;;;;;5019790;28;20056;-60
2022/04/08 10:32:39;;;;;;;2.25;1.55;;;11.70;99.90;;;;;;5022398;28;20695;-59
2022/04/08 10:35:16;;;;;;;6.63;1.73;;;11.70;99.90;;;;;;5022793;28;20084;-57
2022/04/08 10:37:53;;;;;;;4.63;1.70;;;11.50;99.90;;;;;;5042754;28;20492;-59
2022/04/08 10:40:20;;;;;;;7.13;1.65;;;11.30;99.90;;;;;;5023750;28;20045;-60
2022/04/08 10:43:09;;;;;;;3.65;1.52;;;11.40;99.90;;;;;;5021674;28;20535;-60
2022/04/08 10:45:36;;;;;;;9.25;1.73;;;11.80;99.90;;;;;;5024405;28;20060;-60
2022/04/08 10:48:23;;;;;;;2.33;1.52;;;12.60;99.90;;;;;;5038234;28;20033;-60
2022/04/08 10:50:50;;;;;;;5.95;1.83;;;12.70;99.90;;;;;;5022764;28;20104;-59
2022/04/08 10:53:22;;;;;;;5.93;1.73;;;13.10;99.90;;;;;;5023759;28;20453;-60
2022/04/08 10:55:53;;;;;;;7.50;3.17;;;12.60;99.90;;;;;;5035918;28;20455;-57
2022/04/08 10:58:42;;;;;;;4.32;2.17;;;13.20;99.90;;;;;;5040643;28;20147;-59
2022/04/08 11:01:18;;;;;;;3.35;1.95;;;13.80;99.90;;;;;;5021566;28;20427;-60
2022/04/08 11:03:53;;;;;;;9.07;1.55;;;13.40;99.30;;;;;;5024099;28;20160;-59
2022/04/08 11:06:19;;;;;;;3.10;1.50;;;13.40;99.90;;;;;;5022309;28;20025;-59
2022/04/08 11:08:45;;;;;;;2.88;1.20;;;13.40;99.20;;;;;;5022387;28;20048;-58
2022/04/08 11:11:11;;;;;;;9.95;2.03;;;14.10;97.90;;;;;;5021927;28;20030;-60
2022/04/08 11:13:41;;;;;;;3.45;1.48;;;13.90;97.60;;;;;;5022129;28;20048;-59
2022/04/08 11:16:07;;;;;;;5.72;2.80;;;14.30;97.60;;;;;;5021680;28;20048;-59
2022/04/08 11:18:33;;;;;;;6.75;1.63;;;14.00;97.60;;;;;;5021983;28;20026;-58
2022/04/08 11:20:59;;;;;;;1.77;1.27;;;13.50;98.90;;;;;;5022074;28;20029;-59
2022/04/08 11:23:30;;;;;;;3.35;1.48;;;14.20;97.60;;;;;;5022415;28;20068;-59
2022/04/08 11:25:56;;;;;;;5.88;1.65;;;14.30;98.80;;;;;;5021346;28;20030;-60
2022/04/08 11:28:22;;;;;;;1.85;1.23;;;14.30;96.80;;;;;;5022207;28;20030;-58
2022/04/08 11:30:55;;;;;;;2.72;1.50;;;14.40;97.10;;;;;;5022394;28;20037;-60
2022/04/08 11:33:21;;;;;;;2.50;1.20;;;14.50;94.90;;;;;;5021198;28;20439;-61
2022/04/08 11:35:53;;;;;;;6.68;2.00;;;15.00;94.00;;;;;;5022213;28;20038;-60
2022/04/08 11:38:23;;;;;;;1.45;1.10;;;15.90;92.60;;;;;;5021189;28;20037;-60
2022/04/08 11:40:49;;;;;;;2.45;1.20;;;16.10;91.50;;;;;;5021242;28;20112;-60
2022/04/08 11:43:16;;;;;;;7.85;4.93;;;16.10;91.40;;;;;;5021527;28;20034;-60
2022/04/08 11:45:46;;;;;;;2.33;1.40;;;16.40;90.60;;;;;;5021847;28;20030;-59
2022/04/08 11:48:17;;;;;;;8.43;5.80;;;16.30;91.10;;;;;;5020947;28;20025;-59
2022/04/08 11:50:43;;;;;;;6.72;4.22;;;16.10;90.80;;;;;;5021731;28;20033;-60
2022/04/08 11:53:20;;;;;;;3.53;1.90;;;15.70;90.50;;;;;;5020609;28;20057;-59
2022/04/08 11:55:56;;;;;;;2.63;1.63;;;15.50;92.20;;;;;;5021739;28;20037;-59
2022/04/08 11:58:23;;;;;;;2.80;1.33;;;15.00;92.10;;;;;;5020493;28;20064;-60
2022/04/08 12:00:50;;;;;;;1.60;1.10;;;15.10;91.60;;;;;;5020141;28;20096;-61
2022/04/08 12:03:42;;;;;;;4.32;1.30;;;14.80;93.50;;;;;;5019111;28;20038;-60
2022/04/08 12:06:08;;;;;;;1.52;1.30;;;15.00;94.80;;;;;;5019940;28;20045;-59
2022/04/08 12:08:34;;;;;;;0.93;0.82;;;15.50;92.70;;;;;;5020103;28;20761;-60
2022/04/08 12:10:59;;;;;;;2.65;1.38;;;15.00;93.60;;;;;;5022975;28;20524;-60
2022/04/08 12:13:31;;;;;;;3.80;1.65;;;14.30;92.70;;;;;;5030670;28;20025;-56
2022/04/08 12:15:58;;;;;;;2.67;1.55;;;13.90;94.80;;;;;;5030894;28;20033;-56
2022/04/08 12:18:32;;;;;;;3.13;1.20;;;13.80;95.30;;;;;;5030809;28;20048;-58
2022/04/08 12:21:08;;;;;;;5.53;1.83;;;14.00;95.50;;;;;;5030848;28;20025;-59
2022/04/08 12:23:34;;;;;;;3.42;1.30;;;14.10;95.50;;;;;;5031361;28;20152;-60
2022/04/08 12:26:05;;;;;;;4.85;1.55;;;13.80;96.10;;;;;;5031543;28;20105;-58
2022/04/08 12:28:32;;;;;;;3.67;1.67;;;13.60;97.20;;;;;;5031776;28;20021;-58
2022/04/08 12:31:09;;;;;;;2.00;1.35;;;13.70;96.90;;;;;;5030723;28;20030;-59
2022/04/08 12:33:35;;;;;;;3.40;1.48;;;13.90;97.40;;;;;;5031652;28;20041;-60
2022/04/08 12:36:00;;;;;;;4.03;2.00;;;13.80;97.70;;;;;;5031463;28;20037;-58
2022/04/08 12:38:26;;;;;;;2.30;1.58;;;13.50;98.50;;;;;;5031434;28;20034;-60
2022/04/08 12:40:52;;;;;;;5.47;2.10;;;13.00;99.90;;;;;;5031689;28;20025;-56
2022/04/08 12:43:18;;;;;;;2.45;1.90;;;12.90;99.90;;;;;;5031494;28;20045;-59
2022/04/08 12:45:44;;;;;;;37.42;4.38;;;12.70;99.90;;;;;;5030891;28;20099;-58
2022/04/08 12:48:09;;;;;;;3.38;2.33;;;12.60;99.90;;;;;;5029954;28;20030;-59
2022/04/08 12:50:35;;;;;;;4.68;2.50;;;12.30;99.90;;;;;;5031494;28;20036;-57
2022/04/08 12:53:01;;;;;;;2.83;2.55;;;12.40;99.90;;;;;;5031156;28;20110;-58